createdAt,value
2022-09-12T00:01:20.249Z,6.75
2022-09-12T00:03:48.536Z,6.10
2022-09-12T00:06:32.121Z,6.55
2022-09-12T00:09:04.371Z,6.90
2022-09-12T00:11:32.233Z,5.90
2022-09-12T00:14:02.453Z,5.78
2022-09-12T00:16:33.252Z,6.07
2022-09-12T00:19:01.997Z,6.00
2022-09-12T00:21:29.392Z,6.32
2022-09-12T00:23:56.964Z,6.38
2022-09-12T00:26:24.219Z,5.80
2022-09-12T00:28:51.717Z,5.82
2022-09-12T00:31:24.833Z,6.28
2022-09-12T00:33:55.097Z,5.57
2022-09-12T00:36:25.588Z,5.95
2022-09-12T00:38:54.804Z,5.97
2022-09-12T00:41:42.126Z,6.28
2022-09-12T00:44:24.610Z,5.65
2022-09-12T00:46:58.329Z,6.60
2022-09-12T00:49:33.992Z,6.22
2022-09-12T00:52:13.799Z,6.80
2022-09-12T00:55:15.647Z,6.60
2022-09-12T00:58:14.632Z,6.60
2022-09-12T01:00:42.322Z,5.68
2022-09-12T01:03:17.413Z,6.07
2022-09-12T01:06:28.392Z,6.38
2022-09-12T01:08:57.744Z,5.70
2022-09-12T01:11:25.034Z,5.85
2022-09-12T01:13:52.325Z,6.07
2022-09-12T01:16:20.188Z,5.75
2022-09-12T01:19:28.325Z,5.50
2022-09-12T01:22:35.151Z,5.65
2022-09-12T01:25:31.784Z,5.68
2022-09-12T01:28:35.709Z,5.72
2022-09-12T01:31:17.445Z,6.20
2022-09-12T01:33:59.687Z,6.05
2022-09-12T01:36:38.656Z,6.30
2022-09-12T01:39:44.078Z,6.50
2022-09-12T01:42:59.009Z,6.32
2022-09-12T01:45:35.975Z,6.70
2022-09-12T01:48:32.441Z,5.90
2022-09-12T01:51:13.691Z,5.95
2022-09-12T01:53:47.070Z,6.50
2022-09-12T01:56:26.614Z,6.75
2022-09-12T01:59:17.012Z,6.15
2022-09-12T02:01:55.592Z,5.95
2022-09-12T02:04:33.952Z,6.43
2022-09-12T02:07:17.425Z,6.25
2022-09-12T02:10:12.544Z,6.68
2022-09-12T02:12:55.879Z,6.15
2022-09-12T02:15:35.174Z,6.43
2022-09-12T02:18:06.355Z,6.70
2022-09-12T02:20:48.981Z,6.35
2022-09-12T02:23:25.185Z,6.47
2022-09-12T02:26:00.399Z,6.57
2022-09-12T02:28:35.944Z,6.53
2022-09-12T02:31:33.827Z,6.40
2022-09-12T02:34:28.906Z,6.53
2022-09-12T02:37:13.302Z,9.85
2022-09-12T02:39:45.030Z,12.43
2022-09-12T02:42:13.133Z,15.63
2022-09-12T02:44:40.528Z,18.30
2022-09-12T02:47:20.662Z,20.30
2022-09-12T02:49:48.332Z,20.75
2022-09-12T02:52:16.263Z,15.65
2022-09-12T02:54:44.978Z,9.73
2022-09-12T02:57:21.884Z,7.78
2022-09-12T02:59:53.554Z,5.97
2022-09-12T03:02:41.597Z,6.03
2022-09-12T03:05:33.306Z,5.45
2022-09-12T03:08:29.056Z,5.97
2022-09-12T03:11:36.697Z,5.38
2022-09-12T03:14:36.050Z,5.50
2022-09-12T03:17:38.842Z,6.53
2022-09-12T03:20:24.940Z,9.70
2022-09-12T03:22:57.662Z,10.02
2022-09-12T03:25:42.113Z,10.25
2022-09-12T03:33:21.096Z,10.05
2022-09-12T03:35:49.270Z,8.15
2022-09-12T03:38:17.028Z,6.85
2022-09-12T03:40:44.939Z,6.80
2022-09-12T03:43:12.371Z,6.50
2022-09-12T03:45:39.681Z,6.50
2022-09-12T03:48:07.316Z,6.68
2022-09-12T03:50:34.970Z,6.97
2022-09-12T03:53:03.722Z,7.13
2022-09-12T03:55:31.209Z,6.93
2022-09-12T03:57:58.425Z,7.65
2022-09-12T04:00:26.175Z,7.45
2022-09-12T04:02:57.714Z,7.70
2022-09-12T04:05:26.233Z,7.43
2022-09-12T04:07:53.506Z,7.13
2022-09-12T04:10:20.883Z,7.15
2022-09-12T04:12:48.138Z,7.05
2022-09-12T04:15:15.571Z,7.25
2022-09-12T04:17:42.804Z,6.80
2022-09-12T04:20:10.325Z,6.82
2022-09-12T04:22:37.608Z,5.80
2022-09-12T04:25:05.508Z,5.70
2022-09-12T04:27:32.863Z,6.03
2022-09-12T04:30:02.288Z,6.30
2022-09-12T04:32:31.465Z,5.93
2022-09-12T04:34:58.941Z,5.43
2022-09-12T04:37:26.239Z,5.57
2022-09-12T04:39:57.897Z,5.40
2022-09-12T04:42:25.386Z,5.38
2022-09-12T04:44:52.622Z,6.53
2022-09-12T04:47:19.934Z,5.03
2022-09-12T04:49:48.595Z,4.97
2022-09-12T04:52:15.800Z,5.47
2022-09-12T04:54:43.001Z,5.40
2022-09-12T04:57:11.137Z,5.30
2022-09-12T04:59:39.597Z,5.30
2022-09-12T05:02:06.896Z,4.70
2022-09-12T05:04:34.934Z,5.20
2022-09-12T05:07:02.934Z,5.25
2022-09-12T05:09:30.317Z,4.88
2022-09-12T05:12:05.636Z,5.00
2022-09-12T05:14:34.230Z,5.10
2022-09-12T05:17:02.338Z,4.97
2022-09-12T05:19:31.418Z,5.60
2022-09-12T05:21:59.570Z,5.82
2022-09-12T05:24:27.395Z,5.20
2022-09-12T05:26:54.819Z,5.38
2022-09-12T05:29:22.074Z,5.68
2022-09-12T05:31:52.326Z,5.63
2022-09-12T05:34:21.009Z,5.18
2022-09-12T05:36:49.156Z,6.00
2022-09-12T05:39:16.594Z,6.32
2022-09-12T05:41:43.817Z,6.47
2022-09-12T05:44:15.251Z,6.53
2022-09-12T05:46:48.653Z,6.15
2022-09-12T05:49:15.921Z,7.10
2022-09-12T05:51:46.003Z,8.00
2022-09-12T05:54:17.860Z,7.68
2022-09-12T05:56:46.388Z,8.23
2022-09-12T05:59:19.856Z,8.98
2022-09-12T06:01:48.655Z,10.02
2022-09-12T06:04:17.236Z,11.75
2022-09-12T06:06:46.256Z,13.75
2022-09-12T06:09:16.685Z,13.25
2022-09-12T06:11:45.770Z,10.52
2022-09-12T06:14:16.312Z,9.88
2022-09-12T06:16:43.878Z,11.05
2022-09-12T06:19:20.601Z,10.30
2022-09-12T06:21:51.682Z,9.07
2022-09-12T06:24:20.249Z,9.63
2022-09-12T06:26:49.231Z,10.13
2022-09-12T06:29:17.313Z,11.82
2022-09-12T06:31:45.882Z,12.40
2022-09-12T06:34:15.629Z,12.20
2022-09-12T06:36:46.630Z,10.10
2022-09-12T06:39:22.832Z,11.98
2022-09-12T06:41:52.195Z,9.80
2022-09-12T06:44:23.037Z,8.38
2022-09-12T06:46:50.811Z,7.13
2022-09-12T06:49:18.323Z,6.60
2022-09-12T06:51:45.539Z,5.95
2022-09-12T06:54:15.664Z,6.00
2022-09-12T06:56:43.834Z,5.10
2022-09-12T06:59:11.100Z,5.28
2022-09-12T07:01:38.637Z,5.72
2022-09-12T07:04:06.146Z,5.80
2022-09-12T07:06:41.873Z,5.45
2022-09-12T07:09:13.947Z,5.18
2022-09-12T07:11:43.057Z,5.10
2022-09-12T07:14:14.094Z,5.25
2022-09-12T07:16:42.068Z,4.75
2022-09-12T07:19:11.011Z,5.22
2022-09-12T07:21:40.445Z,6.25
2022-09-12T07:24:10.178Z,6.30
2022-09-12T07:26:38.877Z,6.00
2022-09-12T07:29:34.737Z,4.15
2022-09-12T07:31:53.706Z,6.07
2022-09-12T07:34:20.957Z,8.77
2022-09-12T07:36:48.184Z,5.25
2022-09-12T07:39:15.479Z,5.30
2022-09-12T07:41:42.626Z,4.82
2022-09-12T07:44:09.998Z,5.68
2022-09-12T07:46:37.327Z,5.10
2022-09-12T07:49:04.631Z,4.70
2022-09-12T07:51:32.443Z,5.30
2022-09-12T07:54:00.160Z,5.03
2022-09-12T07:56:31.192Z,5.00
2022-09-12T07:59:00.073Z,4.43
2022-09-12T08:01:28.156Z,5.30
2022-09-12T08:03:59.153Z,5.65
2022-09-12T08:06:28.580Z,5.30
2022-09-12T08:08:58.272Z,7.20
2022-09-12T08:11:28.476Z,6.50
2022-09-12T08:13:57.784Z,6.40
2022-09-12T08:16:35.534Z,6.15
2022-09-12T08:19:04.024Z,5.22
2022-09-12T08:21:33.535Z,5.90
2022-09-12T08:24:06.302Z,6.30
2022-09-12T08:26:35.314Z,6.47
2022-09-12T08:29:02.661Z,6.28
2022-09-12T08:31:36.525Z,5.80
2022-09-12T08:34:07.945Z,5.78
2022-09-12T08:36:36.040Z,6.90
2022-09-12T08:39:08.036Z,5.95
2022-09-12T08:41:47.140Z,4.80
2022-09-12T08:44:35.571Z,4.70
2022-09-12T08:47:37.089Z,4.72
2022-09-12T08:50:12.872Z,3.90
2022-09-12T08:52:52.049Z,3.20
2022-09-12T08:55:28.443Z,3.10
2022-09-12T08:57:55.693Z,3.10
2022-09-12T09:00:23.282Z,3.20
2022-09-12T09:03:02.783Z,3.40
2022-09-12T09:05:51.454Z,3.38
2022-09-12T09:08:45.359Z,3.55
2022-09-12T09:11:42.932Z,3.70
2022-09-12T09:14:56.545Z,4.00
2022-09-12T09:17:33.082Z,3.95
2022-09-12T09:20:15.318Z,3.80
2022-09-12T09:23:22.133Z,4.10
2022-09-12T09:26:01.862Z,4.00
2022-09-12T09:28:42.679Z,3.88
2022-09-12T09:31:22.012Z,3.67
2022-09-12T09:33:55.246Z,3.60
2022-09-12T09:36:41.324Z,3.60
2022-09-12T09:39:35.251Z,3.70
2022-09-12T09:42:12.753Z,3.10
2022-09-12T09:44:40.367Z,2.67
2022-09-12T09:47:12.853Z,2.90
2022-09-12T09:49:40.532Z,2.88
2022-09-12T09:52:09.141Z,2.58
2022-09-12T09:54:57.449Z,2.70
2022-09-12T09:57:37.171Z,3.00
2022-09-12T10:00:31.707Z,2.40
2022-09-12T10:03:13.924Z,2.40
2022-09-12T10:06:01.244Z,2.50
2022-09-12T10:08:32.657Z,2.40
2022-09-12T10:11:19.405Z,2.47
2022-09-12T10:13:58.159Z,2.50
2022-09-12T10:16:30.314Z,2.67
2022-09-12T10:19:00.698Z,2.30
2022-09-12T10:22:01.093Z,2.35
2022-09-12T10:24:35.506Z,2.50
2022-09-12T10:27:41.342Z,2.40
2022-09-12T10:30:19.821Z,2.50
2022-09-12T10:32:54.212Z,2.45
2022-09-12T10:35:48.213Z,2.17
2022-09-12T10:38:33.571Z,2.40
2022-09-12T10:41:10.398Z,2.40
2022-09-12T10:43:41.506Z,2.33
2022-09-12T10:46:29.436Z,2.45
2022-09-12T10:49:31.551Z,2.60
2022-09-12T10:52:24.021Z,3.17
2022-09-12T10:54:52.449Z,2.42
2022-09-12T10:57:47.691Z,2.22
2022-09-12T11:00:27.550Z,2.40
2022-09-12T11:03:17.050Z,2.80
2022-09-12T11:06:01.866Z,2.00
2022-09-12T11:08:34.672Z,2.60
2022-09-12T11:11:29.633Z,2.20
2022-09-12T11:14:46.385Z,2.40
2022-09-12T11:17:47.384Z,2.60
2022-09-12T11:20:44.726Z,2.55
2022-09-12T11:23:14.737Z,2.47
2022-09-12T11:25:55.669Z,2.35
2022-09-12T11:28:50.731Z,2.28
2022-09-12T11:31:35.785Z,2.30
2022-09-12T11:34:09.711Z,3.35
2022-09-12T11:37:07.440Z,3.50
2022-09-12T11:39:41.514Z,2.92
2022-09-12T11:42:26.260Z,3.10
2022-09-12T11:45:17.875Z,2.25
2022-09-12T11:47:55.859Z,2.15
2022-09-12T11:50:32.206Z,2.60
2022-09-12T11:53:23.622Z,2.60
2022-09-12T11:56:17.271Z,2.25
2022-09-12T11:58:53.353Z,2.10
2022-09-12T12:01:48.695Z,2.15
2022-09-12T12:04:22.342Z,2.00
2022-09-12T12:07:11.314Z,2.22
2022-09-12T12:09:53.223Z,2.20
2022-09-12T12:12:25.621Z,2.30
2022-09-12T12:14:55.686Z,2.17
2022-09-12T12:17:25.689Z,2.75
2022-09-12T12:20:07.428Z,3.13
2022-09-12T12:22:36.153Z,3.17
2022-09-12T12:25:17.248Z,2.60
2022-09-12T12:27:59.199Z,2.80
2022-09-12T12:30:33.582Z,2.50
2022-09-12T12:33:02.106Z,2.53
2022-09-12T12:36:04.705Z,2.40
2022-09-12T12:38:44.494Z,2.15
2022-09-12T12:41:17.710Z,2.20
2022-09-12T12:43:48.583Z,2.23
2022-09-12T12:46:18.055Z,2.47
2022-09-12T12:49:27.612Z,2.40
2022-09-12T12:51:55.996Z,2.40
2022-09-12T12:54:41.459Z,2.40
2022-09-12T12:57:26.747Z,2.10
2022-09-12T12:59:55.833Z,2.17
2022-09-12T13:02:36.228Z,2.40
2022-09-12T13:05:16.249Z,2.00
2022-09-12T13:07:44.680Z,2.40
2022-09-12T13:10:29.361Z,2.75
2022-09-12T13:13:01.537Z,2.17
2022-09-12T13:15:37.949Z,2.08
2022-09-12T13:18:22.225Z,2.30
2022-09-12T13:21:16.019Z,2.25
2022-09-12T13:23:44.491Z,2.43
2022-09-12T13:26:28.221Z,2.30
2022-09-12T13:29:21.988Z,2.40
2022-09-12T13:31:56.441Z,2.30
2022-09-12T13:34:31.825Z,2.40
2022-09-12T13:37:49.708Z,2.47
2022-09-12T13:40:38.479Z,1.95
2022-09-12T13:43:17.817Z,2.15
2022-09-12T13:45:47.629Z,2.20
2022-09-12T13:48:23.612Z,2.30
2022-09-12T13:51:00.896Z,2.13
2022-09-12T13:53:38.211Z,2.35
2022-09-12T13:56:05.503Z,2.50
2022-09-12T13:58:35.237Z,2.30
2022-09-12T14:01:13.677Z,2.40
2022-09-12T14:04:14.059Z,2.10
2022-09-12T14:06:51.186Z,2.28
2022-09-12T14:09:32.703Z,2.20
2022-09-12T14:12:00.283Z,2.08
2022-09-12T14:14:43.984Z,2.20
2022-09-12T14:17:29.872Z,2.53
2022-09-12T14:19:59.460Z,2.25
2022-09-12T14:22:29.912Z,2.10
2022-09-12T14:24:59.662Z,2.33
2022-09-12T14:27:44.377Z,2.20
2022-09-12T14:30:36.547Z,2.20
2022-09-12T14:33:09.756Z,2.00
2022-09-12T14:35:43.296Z,1.93
2022-09-12T14:41:01.847Z,2.20
2022-09-12T14:43:36.238Z,2.25
2022-09-12T14:46:18.213Z,1.88
2022-09-12T14:48:54.789Z,2.30
2022-09-12T14:51:34.794Z,2.30
2022-09-12T14:54:02.803Z,2.30
2022-09-12T14:56:45.344Z,2.10
2022-09-12T14:59:41.980Z,2.40
2022-09-12T15:02:20.779Z,2.00
2022-09-12T15:05:04.297Z,2.10
2022-09-12T15:08:03.818Z,2.03
2022-09-12T15:10:34.778Z,2.10
2022-09-12T15:13:11.101Z,1.98
2022-09-12T15:15:41.500Z,2.08
2022-09-12T15:18:09.769Z,2.33
2022-09-12T15:20:40.278Z,2.00
2022-09-12T15:23:17.446Z,2.00
2022-09-12T15:25:44.753Z,1.80
2022-09-12T15:28:21.189Z,1.90
2022-09-12T15:30:51.598Z,1.83
2022-09-12T15:33:21.104Z,2.33
2022-09-12T15:35:48.591Z,2.05
2022-09-12T15:38:15.880Z,2.10
2022-09-12T15:40:43.146Z,2.00
2022-09-12T15:43:14.150Z,2.03
2022-09-12T15:45:44.305Z,2.10
2022-09-12T15:48:11.898Z,1.90
2022-09-12T15:50:39.181Z,2.15
2022-09-12T15:53:06.421Z,2.00
2022-09-12T15:55:33.918Z,1.98
2022-09-12T15:58:06.265Z,2.00
2022-09-12T16:00:34.420Z,2.10
2022-09-12T16:03:01.842Z,2.10
2022-09-12T16:05:29.693Z,2.10
2022-09-12T16:07:56.948Z,2.38
2022-09-12T16:10:30.598Z,2.00
2022-09-12T16:12:58.398Z,1.98
2022-09-12T16:15:26.428Z,2.10
2022-09-12T16:17:54.149Z,1.90
2022-09-12T16:20:22.829Z,2.08
2022-09-12T16:22:50.149Z,1.95
2022-09-12T16:25:17.759Z,2.10
2022-09-12T16:27:45.848Z,2.03
2022-09-12T16:30:13.880Z,2.13
2022-09-12T16:32:41.504Z,2.22
2022-09-12T16:35:09.757Z,2.20
2022-09-12T16:37:36.998Z,2.00
2022-09-12T16:40:06.388Z,2.17
2022-09-12T16:42:33.682Z,2.45
2022-09-12T16:45:00.901Z,2.28
2022-09-12T16:47:32.208Z,2.35
2022-09-12T16:49:59.719Z,2.45
2022-09-12T16:52:27.259Z,2.47
2022-09-12T16:54:54.519Z,2.20
2022-09-12T16:57:22.562Z,2.10
2022-09-12T16:59:49.995Z,2.30
2022-09-12T17:02:17.297Z,1.98
2022-09-12T17:04:44.673Z,2.40
2022-09-12T17:07:11.901Z,2.15
2022-09-12T17:09:39.159Z,2.45
2022-09-12T17:12:06.650Z,2.67
2022-09-12T17:14:33.928Z,2.80
2022-09-12T17:17:01.222Z,2.80
2022-09-12T17:19:30.025Z,2.53
2022-09-12T17:21:58.416Z,2.78
2022-09-12T17:24:26.832Z,2.72
2022-09-12T17:26:54.882Z,2.65
2022-09-12T17:29:22.154Z,2.50
2022-09-12T17:31:49.452Z,2.80
2022-09-12T17:34:17.808Z,2.80
2022-09-12T17:36:48.478Z,2.83
2022-09-12T17:39:16.111Z,3.50
2022-09-12T17:41:45.781Z,3.95
2022-09-12T17:44:15.193Z,4.10
2022-09-12T17:46:43.426Z,4.05
2022-09-12T17:49:22.149Z,3.95
2022-09-12T17:51:49.485Z,4.40
2022-09-12T17:54:20.848Z,4.22
2022-09-12T17:56:49.900Z,4.45
2022-09-12T17:59:21.489Z,3.90
2022-09-12T18:02:07.523Z,3.97
2022-09-12T18:04:35.083Z,4.28
2022-09-12T18:07:02.457Z,3.90
2022-09-12T18:09:30.775Z,3.92
2022-09-12T18:11:58.675Z,3.75
2022-09-12T18:14:27.777Z,3.58
2022-09-12T18:16:57.229Z,3.38
2022-09-12T18:19:25.277Z,3.78
2022-09-12T18:21:52.739Z,4.10
2022-09-12T18:24:20.021Z,3.60
2022-09-12T18:26:47.380Z,3.92
2022-09-12T18:29:20.164Z,3.58
2022-09-12T18:31:48.093Z,3.78
2022-09-12T18:34:17.714Z,3.85
2022-09-12T18:36:48.897Z,3.70
2022-09-12T18:39:18.009Z,3.30
2022-09-12T18:41:45.385Z,3.20
2022-09-12T18:44:12.904Z,3.20
2022-09-12T18:46:40.293Z,3.60
2022-09-12T18:49:09.334Z,3.22
2022-09-12T18:51:40.139Z,3.15
2022-09-12T18:54:12.844Z,3.05
2022-09-12T18:56:43.527Z,2.88
2022-09-12T18:59:12.962Z,3.08
2022-09-12T19:01:40.646Z,3.50
2022-09-12T19:04:10.218Z,3.70
2022-09-12T19:06:44.713Z,3.38
2022-09-12T19:09:15.125Z,3.90
2022-09-12T19:11:48.973Z,3.95
2022-09-12T19:14:18.869Z,3.78
2022-09-12T19:16:46.337Z,3.78
2022-09-12T19:19:13.559Z,4.18
2022-09-12T19:21:42.135Z,3.97
2022-09-12T19:24:10.671Z,3.75
2022-09-12T19:26:39.627Z,3.13
2022-09-12T19:29:09.149Z,3.70
2022-09-12T19:31:36.391Z,3.88
2022-09-12T19:34:06.463Z,3.38
2022-09-12T19:36:44.785Z,3.75
2022-09-12T19:39:12.926Z,4.00
2022-09-12T19:41:40.083Z,3.42
2022-09-12T19:44:07.429Z,3.50
2022-09-12T19:46:34.995Z,3.80
2022-09-12T19:49:02.287Z,3.35
2022-09-12T19:51:29.599Z,3.25
2022-09-12T19:53:56.988Z,3.53
2022-09-12T19:56:24.180Z,3.70
2022-09-12T19:58:56.095Z,3.67
2022-09-12T20:01:29.988Z,3.65
2022-09-12T20:03:58.102Z,3.72
2022-09-12T20:06:26.912Z,4.00
2022-09-12T20:08:55.062Z,4.18
2022-09-12T20:11:24.462Z,4.00
2022-09-12T20:13:52.435Z,3.80
2022-09-12T20:16:29.194Z,4.53
2022-09-12T20:19:03.699Z,3.85
2022-09-12T20:24:04.617Z,3.45
2022-09-12T20:26:32.180Z,3.65
2022-09-12T20:29:00.143Z,3.72
2022-09-12T20:31:27.693Z,3.65
2022-09-12T20:33:55.428Z,3.90
2022-09-12T20:36:23.886Z,4.07
2022-09-12T20:39:02.591Z,4.07
2022-09-12T20:41:33.800Z,3.70
2022-09-12T20:44:01.004Z,4.32
2022-09-12T20:46:29.139Z,3.88
2022-09-12T20:48:57.038Z,4.25
2022-09-12T20:51:26.675Z,4.93
2022-09-12T20:54:00.187Z,6.55
2022-09-12T20:56:29.054Z,5.85
2022-09-12T20:58:57.594Z,4.95
2022-09-12T21:01:26.912Z,4.20
2022-09-12T21:03:55.227Z,4.22
2022-09-12T21:06:22.596Z,4.20
2022-09-12T21:08:51.022Z,3.78
2022-09-12T21:11:20.268Z,4.07
2022-09-12T21:13:47.892Z,3.88
2022-09-12T21:16:19.060Z,4.10
2022-09-12T21:18:46.821Z,3.83
2022-09-12T21:21:16.392Z,3.97
2022-09-12T21:23:43.687Z,4.18
2022-09-12T21:26:11.257Z,4.28
2022-09-12T21:28:38.600Z,4.10
2022-09-12T21:31:06.197Z,6.88
2022-09-12T21:33:33.555Z,8.38
2022-09-12T21:36:06.540Z,7.30
2022-09-12T21:38:34.757Z,5.40
2022-09-12T21:41:11.801Z,5.18
2022-09-12T21:43:39.714Z,5.93
2022-09-12T21:46:08.456Z,5.90
2022-09-12T21:48:36.678Z,6.45
2022-09-12T21:51:04.508Z,6.70
2022-09-12T21:53:32.224Z,8.27
2022-09-12T21:56:07.072Z,13.48
2022-09-12T21:58:34.906Z,13.60
2022-09-12T22:01:02.687Z,8.57
2022-09-12T22:03:30.841Z,6.05
2022-09-12T22:06:03.853Z,6.80
2022-09-12T22:08:33.366Z,7.20
2022-09-12T22:11:04.682Z,8.20
2022-09-12T22:13:32.521Z,7.10
2022-09-12T22:16:03.484Z,6.38
2022-09-12T22:18:36.928Z,6.10
2022-09-12T22:21:19.424Z,5.35
2022-09-12T22:24:05.149Z,4.63
2022-09-12T22:26:42.015Z,4.50
2022-09-12T22:29:10.432Z,4.90
2022-09-12T22:31:38.642Z,4.88
2022-09-12T22:34:06.642Z,4.38
2022-09-12T22:36:37.042Z,5.20
2022-09-12T22:39:06.496Z,5.05
2022-09-12T22:41:33.883Z,4.60
2022-09-12T22:44:01.207Z,4.15
2022-09-12T22:46:30.090Z,3.95
2022-09-12T22:48:57.430Z,4.47
2022-09-12T22:51:24.741Z,4.57
2022-09-12T22:53:52.470Z,4.10
2022-09-12T22:56:19.852Z,4.13
2022-09-12T22:58:47.113Z,5.00
2022-09-12T23:01:14.683Z,5.85
2022-09-12T23:03:42.313Z,5.30
2022-09-12T23:06:11.306Z,4.47
2022-09-12T23:08:39.927Z,3.88
2022-09-12T23:11:13.874Z,3.97
2022-09-12T23:13:45.464Z,6.78
2022-09-12T23:16:21.777Z,6.90
2022-09-12T23:18:49.491Z,5.03
2022-09-12T23:21:20.275Z,4.45
2022-09-12T23:23:47.645Z,4.32
2022-09-12T23:26:18.296Z,4.30
2022-09-12T23:29:05.823Z,4.40
2022-09-12T23:31:34.797Z,3.92
2022-09-12T23:34:06.123Z,3.90
2022-09-12T23:36:34.597Z,3.78
2022-09-12T23:39:02.349Z,3.75
2022-09-12T23:41:29.794Z,3.97
2022-09-12T23:43:57.317Z,4.00
2022-09-12T23:46:24.832Z,4.28
2022-09-12T23:48:53.496Z,3.97
2022-09-12T23:51:22.117Z,4.20
2022-09-12T23:53:50.201Z,4.60
2022-09-12T23:56:17.443Z,4.20
2022-09-12T23:58:44.798Z,3.70
